Time;durP1;ratioP1;P1;durP2;ratioP2;P2;SDS_P1;SDS_P2;PMS_P1;PMS_P2;Temp;Humidity;BMP_temperature;BMP_pressure;BME280_temperature;BME280_humidity;BME280_pressure;Samples;Min_cycle;Max_cycle;Signal;HPM_P1;HPM_P2
2023/03/30 00:01:15;;;;;;;20.23;14.57;;;;;;;7.69;80.73;99457.34;5052419;28;20021;-75
2023/03/30 00:03:41;;;;;;;17.60;14.07;;;;;;;7.67;80.79;99448.81;5052095;28;20120;-76
2023/03/30 00:06:09;;;;;;;21.48;14.10;;;;;;;7.63;81.11;99444.63;5051670;28;20105;-75
2023/03/30 00:08:35;;;;;;;24.00;14.23;;;;;;;7.36;81.26;99403.28;5052177;28;20241;-75
2023/03/30 00:11:05;;;;;;;23.35;16.30;;;;;;;7.58;81.64;99441.34;5052388;28;20025;-75
2023/03/30 00:13:32;;;;;;;20.88;14.73;;;;;;;7.55;81.33;99441.47;5052212;28;20033;-75
2023/03/30 00:15:57;;;;;;;23.42;15.07;;;;;;;7.47;81.56;99428.81;5051928;28;20029;-75
2023/03/30 00:18:23;;;;;;;20.63;15.38;;;;;;;7.47;81.28;99416.69;5052412;28;20121;-75
2023/03/30 00:20:50;;;;;;;22.48;15.88;;;;;;;7.44;81.57;99421.97;5052023;28;20021;-75
2023/03/30 00:23:16;;;;;;;26.08;18.98;;;;;;;7.49;81.83;99421.81;5052188;28;20025;-76
2023/03/30 00:25:42;;;;;;;19.65;14.75;;;;;;;7.54;81.91;99430.25;5051858;28;20109;-76
2023/03/30 00:28:07;;;;;;;19.15;13.68;;;;;;;7.66;82.05;99441.91;5051998;28;20491;-75
2023/03/30 00:30:33;;;;;;;15.43;13.13;;;;;;;7.62;82.12;99427.38;5051956;28;20021;-75
2023/03/30 00:32:58;;;;;;;15.88;12.13;;;;;;;7.61;82.66;99431.72;5051878;28;20036;-75
2023/03/30 00:35:25;;;;;;;16.38;12.18;;;;;;;7.50;82.87;99418.34;5052261;28;20021;-75
2023/03/30 00:37:50;;;;;;;19.45;12.48;;;;;;;7.45;83.25;99413.28;5051818;28;20079;-75
2023/03/30 00:40:19;;;;;;;15.43;11.10;;;;;;;7.41;83.39;99403.94;5052434;28;20364;-75
2023/03/30 00:42:44;;;;;;;15.80;11.02;;;;;;;7.36;83.30;99394.66;5051644;28;20029;-75
2023/03/30 00:45:20;;;;;;;14.63;11.18;;;;;;;7.33;83.37;99399.97;5051772;28;20145;-75
2023/03/30 00:47:51;;;;;;;15.52;11.52;;;;;;;7.58;83.31;99425.78;5051592;28;20086;-75
2023/03/30 00:50:20;;;;;;;18.07;11.57;;;;;;;7.62;83.48;99429.97;5050643;28;20064;-75
2023/03/30 00:52:51;;;;;;;18.20;12.05;;;;;;;7.43;83.37;99378.00;5051498;28;20267;-75
2023/03/30 00:55:19;;;;;;;20.92;14.88;;;;;;;7.47;83.95;99388.19;5051641;28;20032;-75
2023/03/30 00:57:46;;;;;;;16.77;12.05;;;;;;;7.56;83.27;99399.09;5051341;28;20346;-75
2023/03/30 01:00:12;;;;;;;18.05;13.00;;;;;;;7.48;83.66;99381.25;5051835;28;20034;-75
2023/03/30 01:02:44;;;;;;;18.63;13.13;;;;;;;7.58;83.47;99397.28;5051420;28;20031;-75
2023/03/30 01:05:10;;;;;;;22.52;12.63;;;;;;;7.52;83.25;99400.13;5051654;28;20024;-75
2023/03/30 01:07:39;;;;;;;19.13;12.85;;;;;;;7.31;83.30;99368.09;5051615;28;20079;-75
2023/03/30 01:10:07;;;;;;;17.67;12.30;;;;;;;7.46;83.66;99396.03;5051351;28;20039;-75
2023/03/30 01:12:33;;;;;;;17.70;13.30;;;;;;;7.49;83.66;99390.72;5051743;28;20029;-75
2023/03/30 01:14:58;;;;;;;17.02;12.27;;;;;;;7.29;83.48;99347.44;5051422;28;20035;-75
2023/03/30 01:17:35;;;;;;;15.40;12.45;;;;;;;7.49;83.18;99386.38;5053296;28;20029;-75
2023/03/30 01:20:39;;;;;;;17.00;12.52;;;;;;;7.54;83.21;99387.94;5053860;28;20029;-75
2023/03/30 01:23:45;;;;;;;19.55;13.23;;;;;;;7.42;83.69;99384.94;5052763;28;20200;-75
2023/03/30 01:26:17;;;;;;;20.42;13.75;;;;;;;7.50;83.54;99385.50;5052904;28;20028;-75
2023/03/30 01:28:51;;;;;;;19.60;13.90;;;;;;;7.24;83.17;99336.38;5052431;28;20172;-75
2023/03/30 01:31:40;;;;;;;18.25;12.98;;;;;;;7.49;83.21;99375.16;5052940;28;20384;-75
2023/03/30 01:34:32;;;;;;;19.10;14.85;;;;;;;7.46;83.21;99365.78;5052852;28;20179;-75
2023/03/30 01:37:24;;;;;;;23.95;15.18;;;;;;;7.55;83.59;99374.09;5052570;28;20484;-75
2023/03/30 01:39:56;;;;;;;21.52;16.60;;;;;;;7.35;83.31;99344.59;5052442;28;20524;-75
2023/03/30 01:42:34;;;;;;;24.42;17.08;;;;;;;7.41;83.23;99343.50;5052599;28;20024;-75
2023/03/30 01:45:19;;;;;;;22.50;14.45;;;;;;;7.57;83.49;99361.91;5052485;28;20039;-75
2023/03/30 01:48:09;;;;;;;24.15;16.00;;;;;;;7.61;83.24;99363.47;5052233;28;20122;-75
2023/03/30 01:50:41;;;;;;;19.52;14.35;;;;;;;7.61;83.24;99347.94;5052532;28;20067;-76
2023/03/30 01:53:15;;;;;;;18.83;13.13;;;;;;;7.55;83.78;99348.19;5052427;28;20044;-75
2023/03/30 01:55:49;;;;;;;17.70;13.02;;;;;;;7.45;83.70;99351.09;5052383;28;20025;-75
2023/03/30 01:58:40;;;;;;;17.52;12.77;;;;;;;7.38;84.14;99347.09;5052381;28;20377;-75
2023/03/30 02:01:07;;;;;;;25.85;16.65;;;;;;;7.30;84.63;99330.16;5012634;28;20033;-75
2023/03/30 02:03:37;;;;;;;20.38;13.65;;;;;;;7.17;84.55;99316.81;5012514;28;20104;-75
2023/03/30 02:06:10;;;;;;;20.85;12.98;;;;;;;7.13;84.67;99313.50;5012295;28;20038;-75
2023/03/30 02:08:37;;;;;;;22.23;14.75;;;;;;;7.25;85.14;99332.91;5012418;28;20033;-75
2023/03/30 02:11:02;;;;;;;25.25;17.17;;;;;;;7.08;85.18;99315.44;5012176;28;20033;-75
2023/03/30 02:13:30;;;;;;;19.75;16.33;;;;;;;7.21;85.10;99323.56;5012386;28;20052;-75
2023/03/30 02:16:06;;;;;;;15.88;11.90;;;;;;;7.27;85.46;99323.31;5012123;28;20125;-75
2023/03/30 02:18:31;;;;;;;15.77;12.35;;;;;;;7.06;84.89;99286.13;5012172;28;20048;-75
2023/03/30 02:20:58;;;;;;;17.05;12.15;;;;;;;7.02;85.06;99287.16;5012023;28;20436;-75
2023/03/30 02:23:29;;;;;;;17.15;13.07;;;;;;;7.17;85.09;99307.31;5012106;28;20038;-76
2023/03/30 02:25:56;;;;;;;18.70;12.48;;;;;;;7.12;85.42;99293.69;5012004;28;20042;-75
2023/03/30 02:28:21;;;;;;;16.90;12.40;;;;;;;7.35;85.12;99323.03;5010891;28;20502;-75
2023/03/30 02:30:47;;;;;;;17.27;12.93;;;;;;;7.21;85.17;99284.72;5011772;28;20038;-75
2023/03/30 02:33:25;;;;;;;17.27;11.98;;;;;;;7.35;85.35;99316.09;5012003;28;20030;-75
2023/03/30 02:36:44;;;;;;;19.67;12.10;;;;;;;7.34;85.44;99316.19;5011771;28;20037;-75
2023/03/30 02:39:15;;;;;;;18.38;12.98;;;;;;;7.35;85.37;99321.28;5011955;28;20041;-75
2023/03/30 02:42:12;;;;;;;17.75;12.35;;;;;;;7.07;85.77;99293.00;5011809;28;20501;-75
2023/03/30 02:45:17;;;;;;;20.02;12.02;;;;;;;7.24;86.04;99313.06;5012081;28;20040;-75
2023/03/30 02:47:59;;;;;;;15.93;11.18;;;;;;;7.11;86.52;99293.72;5011725;28;20121;-75
2023/03/30 02:50:39;;;;;;;13.88;11.05;;;;;;;7.05;86.81;99283.63;5011768;28;20041;-75
2023/03/30 02:53:11;;;;;;;20.35;11.60;;;;;;;7.02;87.27;99276.81;5011502;28;20038;-75
2023/03/30 02:55:59;;;;;;;21.13;12.00;;;;;;;7.15;87.48;99300.47;5011562;28;20034;-75
2023/03/30 02:58:55;;;;;;;18.35;11.50;;;;;;;7.11;87.87;99302.34;5011581;28;20031;-75
2023/03/30 03:01:38;;;;;;;15.57;11.10;;;;;;;6.96;88.12;99267.53;5011454;28;20125;-75
2023/03/30 03:04:05;;;;;;;19.10;12.07;;;;;;;7.10;88.27;99295.47;5011228;28;20053;-75
2023/03/30 03:06:31;;;;;;;21.42;13.00;;;;;;;7.02;88.47;99274.22;5011352;28;20486;-75
2023/03/30 03:08:58;;;;;;;17.13;11.45;;;;;;;7.06;88.63;99262.00;5010998;28;20044;-75
2023/03/30 03:11:23;;;;;;;15.98;11.13;;;;;;;7.24;88.63;99269.03;5011190;28;20490;-75
2023/03/30 03:13:49;;;;;;;14.27;11.45;;;;;;;7.27;88.27;99273.28;5048805;28;20124;-75
2023/03/30 03:16:15;;;;;;;17.63;11.52;;;;;;;7.14;88.33;99236.66;5053410;28;20515;-75
2023/03/30 03:18:40;;;;;;;15.52;11.82;;;;;;;7.26;88.34;99259.47;5053349;28;20051;-75
2023/03/30 03:21:07;;;;;;;17.10;11.25;;;;;;;7.10;88.49;99229.91;5053026;28;20028;-75
2023/03/30 03:23:34;;;;;;;16.98;11.60;;;;;;;6.98;88.88;99221.69;5053373;28;20630;-75
2023/03/30 03:25:59;;;;;;;14.20;10.82;;;;;;;7.13;89.12;99235.81;5053121;28;20139;-75
2023/03/30 03:28:26;;;;;;;20.27;11.77;;;;;;;7.08;89.49;99242.03;5053020;28;20048;-75
2023/03/30 03:30:52;;;;;;;16.60;11.63;;;;;;;7.00;89.61;99225.09;5052878;28;20027;-75
2023/03/30 03:33:19;;;;;;;15.10;11.32;;;;;;;6.97;89.68;99203.63;5053156;28;20112;-75
2023/03/30 03:35:44;;;;;;;15.88;11.10;;;;;;;7.05;89.68;99224.06;5053486;28;20516;-75
2023/03/30 03:38:11;;;;;;;14.95;11.85;;;;;;;6.99;90.33;99212.19;5052484;28;20124;-75
2023/03/30 03:40:36;;;;;;;16.15;12.02;;;;;;;6.81;90.61;99195.63;5052914;28;20056;-76
2023/03/30 03:43:01;;;;;;;15.70;10.68;;;;;;;6.85;90.75;99202.38;5052713;28;20064;-75
2023/03/30 03:45:27;;;;;;;15.07;11.32;;;;;;;6.94;91.20;99217.53;5052870;28;20116;-75
2023/03/30 03:47:53;;;;;;;16.73;10.82;;;;;;;6.82;91.65;99191.28;5051157;28;20025;-75
2023/03/30 03:50:19;;;;;;;16.13;11.07;;;;;;;6.80;92.16;99186.19;5052676;28;20029;-75
2023/03/30 03:52:45;;;;;;;15.85;11.25;;;;;;;6.98;92.14;99203.56;5052519;28;20037;-75
2023/03/30 03:55:11;;;;;;;14.02;11.25;;;;;;;6.84;91.74;99161.84;5052533;28;20031;-75
2023/03/30 03:57:37;;;;;;;14.48;11.23;;;;;;;6.92;92.12;99172.75;5052688;28;20029;-75
2023/03/30 04:00:04;;;;;;;14.70;10.40;;;;;;;7.03;91.67;99181.84;5052385;28;20032;-74
2023/03/30 04:02:29;;;;;;;14.43;10.30;;;;;;;7.09;91.91;99186.78;5052525;28;20074;-75
2023/03/30 04:04:56;;;;;;;13.43;10.40;;;;;;;7.11;91.94;99198.75;5052162;28;20476;-75
2023/03/30 04:07:24;;;;;;;16.85;11.40;;;;;;;6.99;91.81;99168.16;5050931;28;20035;-75
2023/03/30 04:09:50;;;;;;;14.98;11.60;;;;;;;7.00;92.00;99193.19;5052199;28;20036;-75
2023/03/30 04:12:15;;;;;;;15.68;12.32;;;;;;;7.13;92.01;99207.31;5052363;28;20025;-75
2023/03/30 04:14:40;;;;;;;19.30;14.45;;;;;;;7.15;91.80;99199.47;5052397;28;20045;-75
2023/03/30 04:17:06;;;;;;;16.80;11.90;;;;;;;7.33;91.25;99221.19;5052009;28;20029;-75
2023/03/30 04:19:31;;;;;;;28.35;16.77;;;;;;;7.33;91.63;99222.06;5052140;28;20090;-75
2023/03/30 04:21:57;;;;;;;17.52;12.48;;;;;;;7.20;92.29;99197.53;5051851;28;20024;-75
2023/03/30 04:24:24;;;;;;;21.40;11.25;;;;;;;7.35;92.57;99214.22;5052293;28;20025;-76
2023/03/30 04:26:50;;;;;;;15.32;10.80;;;;;;;7.24;92.68;99201.69;5051820;28;20376;-75
2023/03/30 04:29:16;;;;;;;15.73;12.35;;;;;;;7.18;93.19;99192.44;5052207;28;20031;-75
2023/03/30 04:31:45;;;;;;;17.67;12.38;;;;;;;7.15;93.38;99173.59;5052027;28;20024;-75
2023/03/30 04:34:12;;;;;;;15.20;11.15;;;;;;;7.02;94.17;99167.22;5051712;28;20065;-75
2023/03/30 04:36:37;;;;;;;15.73;11.02;;;;;;;7.08;94.69;99175.59;5051833;28;20104;-75
2023/03/30 04:39:05;;;;;;;19.73;14.35;;;;;;;7.02;95.67;99180.16;5051588;28;20545;-75
2023/03/30 04:41:32;;;;;;;27.80;23.00;;;;;;;6.89;97.27;99153.91;5052060;28;20044;-75
2023/03/30 04:44:08;;;;;;;20.40;14.50;;;;;;;6.95;96.93;99185.59;5051617;28;20629;-75
2023/03/30 04:46:35;;;;;;;16.50;12.88;;;;;;;6.82;97.44;99155.03;5052276;28;20039;-75
2023/03/30 04:49:00;;;;;;;19.30;13.23;;;;;;;6.75;98.68;99141.53;5051890;28;20024;-75
2023/03/30 04:51:26;;;;;;;18.52;12.90;;;;;;;6.90;99.18;99169.38;5051652;28;20111;-75
2023/03/30 04:53:52;;;;;;;19.17;13.77;;;;;;;6.85;99.48;99163.53;5051661;28;20032;-75
2023/03/30 04:56:17;;;;;;;18.25;13.52;;;;;;;6.80;99.63;99165.47;5051713;28;20029;-75
2023/03/30 04:58:42;;;;;;;17.02;12.68;;;;;;;6.66;99.59;99134.13;5051652;28;20025;-75
2023/03/30 05:01:08;;;;;;;16.33;12.63;;;;;;;6.59;99.50;99117.13;5051495;28;20029;-75
2023/03/30 05:03:33;;;;;;;17.88;12.32;;;;;;;6.39;100.00;99087.69;5051601;28;20036;-75
2023/03/30 05:05:59;;;;;;;18.02;13.63;;;;;;;6.78;100.00;99143.13;5051340;28;20060;-75
2023/03/30 05:08:24;;;;;;;17.50;13.32;;;;;;;6.84;100.00;99140.31;5051507;28;20028;-75
2023/03/30 05:10:50;;;;;;;20.85;13.20;;;;;;;6.93;100.00;99168.41;5051811;28;20044;-75
2023/03/30 05:13:16;;;;;;;17.05;11.98;;;;;;;6.84;100.00;99141.16;5051432;28;20027;-75
2023/03/30 05:15:41;;;;;;;19.20;13.30;;;;;;;7.02;100.00;99149.91;5051599;28;20115;-75
2023/03/30 05:18:06;;;;;;;17.63;12.38;;;;;;;6.97;100.00;99154.44;5051354;28;20273;-75
2023/03/30 05:20:32;;;;;;;16.63;12.85;;;;;;;6.86;100.00;99126.38;5051518;28;20029;-75
2023/03/30 05:22:57;;;;;;;16.48;12.65;;;;;;;7.02;100.00;99144.75;5051378;28;20027;-75
2023/03/30 05:25:23;;;;;;;20.98;14.30;;;;;;;6.88;100.00;99111.66;5051849;28;20040;-75
2023/03/30 05:27:48;;;;;;;20.42;14.18;;;;;;;6.98;100.00;99123.31;5051238;28;20312;-75
2023/03/30 05:30:14;;;;;;;16.63;13.07;;;;;;;6.94;100.00;99120.91;5051123;28;20061;-75
2023/03/30 05:32:39;;;;;;;18.42;13.95;;;;;;;7.06;100.00;99138.53;5051300;28;20029;-75
2023/03/30 05:35:05;;;;;;;17.65;12.75;;;;;;;7.04;100.00;99113.59;5051149;28;20059;-77
2023/03/30 05:37:31;;;;;;;18.70;13.05;;;;;;;7.10;100.00;99140.09;5051557;28;20180;-75
2023/03/30 05:39:57;;;;;;;18.52;14.32;;;;;;;7.05;100.00;99131.69;5051193;28;20048;-75
2023/03/30 05:42:22;;;;;;;21.52;13.43;;;;;;;7.06;100.00;99112.66;5051290;28;20025;-74
2023/03/30 05:44:48;;;;;;;17.67;12.02;;;;;;;7.16;100.00;99118.28;5051321;28;20095;-74
2023/03/30 05:47:13;;;;;;;16.23;12.68;;;;;;;7.24;100.00;99109.28;5049609;28;20029;-74
2023/03/30 05:49:38;;;;;;;18.48;13.32;;;;;;;7.27;100.00;99115.25;5051386;28;20057;-75
2023/03/30 05:52:04;;;;;;;17.95;11.88;;;;;;;7.60;100.00;99133.72;5051138;28;20056;-74
2023/03/30 05:54:29;;;;;;;17.80;12.52;;;;;;;7.39;98.78;99112.16;5051426;28;20032;-75
2023/03/30 05:56:55;;;;;;;16.65;11.60;;;;;;;7.39;99.22;99123.38;5051315;28;20061;-74
2023/03/30 05:59:20;;;;;;;16.08;12.23;;;;;;;7.35;100.00;99108.00;5050920;28;20098;-74
2023/03/30 06:01:46;;;;;;;16.83;12.23;;;;;;;7.23;99.84;99104.19;5051060;28;20029;-75
2023/03/30 06:04:12;;;;;;;19.27;13.00;;;;;;;7.30;100.00;99113.38;5052587;28;20060;-74
2023/03/30 06:06:37;;;;;;;18.38;12.77;;;;;;;7.37;100.00;99113.97;5054858;28;20029;-74
2023/03/30 06:09:03;;;;;;;19.80;13.75;;;;;;;7.33;100.00;99109.81;5054463;28;20029;-75
2023/03/30 06:11:30;;;;;;;17.02;12.00;;;;;;;7.33;100.00;99112.41;5054318;28;20503;-75
2023/03/30 06:13:56;;;;;;;17.90;12.90;;;;;;;7.34;100.00;99120.13;5054515;28;20021;-74
2023/03/30 06:16:21;;;;;;;20.35;13.48;;;;;;;7.21;100.00;99082.69;5054031;28;20036;-74
2023/03/30 06:18:46;;;;;;;19.23;14.27;;;;;;;7.13;100.00;99085.59;5054265;28;20029;-75
2023/03/30 06:21:12;;;;;;;17.88;12.93;;;;;;;7.41;100.00;99110.34;5053790;28;20373;-75
2023/03/30 06:23:39;;;;;;;16.90;13.18;;;;;;;7.37;100.00;99083.72;5054085;28;20071;-74
2023/03/30 06:26:06;;;;;;;16.85;12.70;;;;;;;7.43;100.00;99090.41;5053834;28;20119;-74
2023/03/30 06:28:32;;;;;;;18.10;13.00;;;;;;;7.46;100.00;99079.91;5053737;28;20051;-74
2023/03/30 06:31:00;;;;;;;16.23;12.60;;;;;;;7.55;100.00;99096.81;5054124;28;20025;-74
2023/03/30 06:33:26;;;;;;;16.58;12.52;;;;;;;7.52;100.00;99096.94;5054443;28;20033;-74
2023/03/30 06:35:53;;;;;;;16.45;12.65;;;;;;;7.39;100.00;99081.06;5054188;28;20025;-74
2023/03/30 06:38:21;;;;;;;17.75;12.65;;;;;;;7.57;100.00;99087.19;5053961;28;20043;-75
2023/03/30 06:40:47;;;;;;;17.23;13.05;;;;;;;7.63;100.00;99097.31;5054087;28;20025;-75
2023/03/30 06:43:19;;;;;;;17.60;13.27;;;;;;;7.64;100.00;99097.25;5053802;28;20056;-74
2023/03/30 06:45:56;;;;;;;16.73;13.00;;;;;;;7.92;99.43;99112.44;5053879;28;20078;-74
2023/03/30 06:48:22;;;;;;;21.17;15.18;;;;;;;7.92;99.57;99102.06;5053782;28;20029;-74
2023/03/30 06:50:53;;;;;;;18.00;12.30;;;;;;;8.06;98.73;99108.38;5054247;28;20021;-75
2023/03/30 06:53:19;;;;;;;17.92;12.75;;;;;;;8.24;98.16;99116.16;5053655;28;20028;-74
2023/03/30 06:55:53;;;;;;;20.33;15.77;;;;;;;8.33;97.12;99111.47;5053789;28;20021;-74
2023/03/30 06:58:18;;;;;;;21.02;13.77;;;;;;;8.36;96.04;99106.16;5053469;28;20557;-74
2023/03/30 07:00:44;;;;;;;16.92;12.35;;;;;;;8.35;95.58;99081.13;5053877;28;20096;-75
2023/03/30 07:03:09;;;;;;;17.40;12.85;;;;;;;8.47;95.23;99086.59;5053538;28;20063;-74
2023/03/30 07:05:35;;;;;;;16.15;13.07;;;;;;;8.63;94.76;99042.56;5053635;28;20057;-74
2023/03/30 07:08:00;;;;;;;17.98;11.68;;;;;;;9.14;92.09;99061.72;5053545;28;20053;-74
2023/03/30 07:10:26;;;;;;;15.45;12.25;;;;;;;9.78;89.88;99073.19;5053461;28;20460;-74
2023/03/30 07:12:51;;;;;;;18.60;12.45;;;;;;;10.73;85.97;99055.81;5053356;28;20547;-74
2023/03/30 07:15:17;;;;;;;15.15;11.40;;;;;;;11.23;82.65;99075.53;5052863;28;20083;-74
2023/03/30 07:17:42;;;;;;;15.65;12.07;;;;;;;11.43;81.68;99068.31;5053437;28;20036;-74
2023/03/30 07:20:09;;;;;;;15.38;11.60;;;;;;;10.89;81.24;99034.94;5053111;28;20033;-74
2023/03/30 07:22:35;;;;;;;15.93;11.90;;;;;;;11.73;81.81;99070.84;5053311;28;20025;-75
2023/03/30 07:25:01;;;;;;;16.73;10.25;;;;;;;12.52;76.84;99045.97;5053264;28;20029;-75
2023/03/30 07:27:26;;;;;;;15.27;11.02;;;;;;;12.85;75.73;99027.25;5052994;28;20487;-74
2023/03/30 07:29:52;;;;;;;14.73;11.30;;;;;;;13.23;74.67;99045.66;5053176;28;20059;-74
2023/03/30 07:32:18;;;;;;;13.63;10.18;;;;;;;13.83;72.60;99028.50;5052888;28;20028;-74
2023/03/30 07:34:44;;;;;;;14.45;10.43;;;;;;;15.17;69.38;99020.50;5051802;28;20094;-74
2023/03/30 07:37:10;;;;;;;20.80;11.48;;;;;;;16.36;64.80;99032.22;5052798;28;20029;-74
2023/03/30 07:39:36;;;;;;;14.63;10.90;;;;;;;17.62;61.36;99040.25;5052928;28;20469;-74
2023/03/30 07:42:01;;;;;;;12.88;10.68;;;;;;;18.59;59.78;99037.97;5052818;28;20036;-74
2023/03/30 07:44:29;;;;;;;16.00;11.05;;;;;;;19.03;56.70;99031.31;5052837;28;20059;-74
2023/03/30 07:46:56;;;;;;;15.63;11.65;;;;;;;19.22;57.13;99024.34;5053007;28;20079;-75
2023/03/30 07:49:22;;;;;;;14.68;10.80;;;;;;;19.26;56.44;99008.09;5052494;28;20511;-74
2023/03/30 07:51:47;;;;;;;12.45;10.77;;;;;;;18.37;57.97;99028.47;5052684;28;20065;-75
2023/03/30 07:54:13;;;;;;;12.77;9.73;;;;;;;17.16;60.12;99028.34;5052359;28;20469;-75
2023/03/30 07:56:39;;;;;;;14.23;11.18;;;;;;;15.48;63.88;99008.50;5052518;28;20041;-75
2023/03/30 07:59:06;;;;;;;13.10;10.55;;;;;;;14.78;66.26;98995.47;5052504;28;20021;-75
2023/03/30 08:01:32;;;;;;;12.65;10.60;;;;;;;13.83;69.13;98997.09;5052617;28;20143;-75
2023/03/30 08:03:59;;;;;;;16.00;12.98;;;;;;;13.60;70.54;99004.75;5052549;28;20099;-75
2023/03/30 08:06:25;;;;;;;15.50;12.57;;;;;;;13.69;71.22;98992.78;5052229;28;20036;-75
2023/03/30 08:08:51;;;;;;;14.70;12.68;;;;;;;14.89;68.22;98991.09;5052260;28;20032;-75
2023/03/30 08:11:16;;;;;;;16.90;13.27;;;;;;;15.54;67.11;98983.56;5017982;28;20723;-77
2023/03/30 08:13:43;;;;;;;14.55;12.30;;;;;;;15.87;66.67;98998.50;5027335;28;20112;-77
2023/03/30 08:16:09;;;;;;;13.63;10.23;;;;;;;15.73;66.25;99004.84;5032075;28;20039;-78
2023/03/30 08:18:35;;;;;;;13.02;10.43;;;;;;;15.47;67.06;99014.72;5032383;28;20021;-78
2023/03/30 08:21:01;;;;;;;14.43;9.88;;;;;;;15.22;67.53;98997.38;5032307;28;20026;-78
2023/03/30 08:23:26;;;;;;;15.55;11.63;;;;;;;14.77;68.86;98999.03;5031958;28;20468;-77
2023/03/30 08:25:56;;;;;;;12.07;10.60;;;;;;;14.59;69.32;98996.00;5031728;28;20036;-78
2023/03/30 08:28:21;;;;;;;11.93;10.68;;;;;;;14.37;70.01;98997.53;5031465;28;20424;-77
2023/03/30 08:30:47;;;;;;;18.35;11.55;;;;;;;14.14;71.07;98980.84;5032176;28;20026;-78
2023/03/30 08:33:13;;;;;;;14.52;12.05;;;;;;;13.50;72.67;98946.16;5031905;28;20512;-77
2023/03/30 08:35:39;;;;;;;14.30;11.52;;;;;;;13.15;74.32;98956.41;5032037;28;20025;-78
2023/03/30 08:38:04;;;;;;;21.23;14.30;;;;;;;12.78;75.82;98931.91;5031939;28;20388;-78
2023/03/30 08:40:30;;;;;;;17.60;13.55;;;;;;;13.11;76.49;98961.00;5030518;28;20029;-78
2023/03/30 08:43:15;;;;;;;22.08;17.70;;;;;;;13.52;76.05;98957.34;5032005;28;20062;-78
2023/03/30 08:45:41;;;;;;;17.00;14.00;;;;;;;13.94;75.85;98943.00;5031941;28;20045;-77
2023/03/30 08:48:18;;;;;;;15.90;13.00;;;;;;;13.98;74.44;98910.41;5031563;28;20075;-78
2023/03/30 08:51:14;;;;;;;11.13;9.85;;;;;;;14.29;73.21;98952.72;5031830;28;20044;-77
2023/03/30 08:53:40;;;;;;;11.88;9.23;;;;;;;14.41;73.25;98953.59;5031996;28;20029;-77
2023/03/30 08:56:15;;;;;;;13.30;11.32;;;;;;;14.35;73.66;98931.31;5032010;28;20032;-78
2023/03/30 08:58:49;;;;;;;15.15;10.60;;;;;;;14.27;73.76;98948.53;5031925;28;20068;-77
2023/03/30 09:01:41;;;;;;;11.35;9.57;;;;;;;14.21;74.11;98936.75;5031436;28;20025;-78
2023/03/30 09:04:10;;;;;;;11.50;8.85;;;;;;;14.51;73.45;98946.78;5031527;28;20053;-78
2023/03/30 09:06:50;;;;;;;13.60;10.60;;;;;;;14.66;73.34;98934.31;5031739;28;20030;-78
2023/03/30 09:09:20;;;;;;;15.05;9.73;;;;;;;14.61;73.61;98926.78;5031284;28;20029;-77
2023/03/30 09:11:48;;;;;;;15.18;10.27;;;;;;;14.73;73.68;98919.78;5031789;28;20377;-78
2023/03/30 09:14:27;;;;;;;10.90;9.10;;;;;;;14.93;73.19;98908.63;5031520;28;20021;-78
2023/03/30 09:17:22;;;;;;;10.65;8.20;;;;;;;15.08;72.85;98897.91;5031789;28;20029;-77
2023/03/30 09:19:54;;;;;;;11.52;7.70;;;;;;;15.19;72.84;98903.19;5029113;28;20397;-78
2023/03/30 09:22:20;;;;;;;10.32;7.38;;;;;;;14.99;72.90;98886.34;5028922;28;20036;-78
2023/03/30 09:24:46;;;;;;;9.55;7.57;;;;;;;15.12;73.53;98915.09;5029084;28;20052;-77
2023/03/30 09:27:34;;;;;;;8.43;7.20;;;;;;;15.25;72.95;98915.81;5028587;28;20505;-78
2023/03/30 09:30:07;;;;;;;9.18;7.45;;;;;;;15.36;72.69;98912.34;4950996;29;20139;-78
2023/03/30 09:32:48;;;;;;;10.38;6.68;;;;;;;15.38;72.36;98886.81;4950787;29;20054;-78
2023/03/30 09:35:17;;;;;;;8.85;6.70;;;;;;;15.51;71.65;98894.59;4950884;29;20047;-78
2023/03/30 09:37:43;;;;;;;11.32;6.47;;;;;;;15.47;71.80;98889.56;4951693;28;20134;-78
2023/03/30 09:40:19;;;;;;;8.30;6.78;;;;;;;15.67;71.34;98871.44;4954719;29;20031;-78
2023/03/30 09:42:59;;;;;;;9.73;6.22;;;;;;;16.00;71.13;98875.75;4954622;29;20504;-77
2023/03/30 09:45:29;;;;;;;9.82;6.60;;;;;;;16.09;70.64;98875.00;4954428;29;20027;-78
2023/03/30 09:47:55;;;;;;;10.32;7.40;;;;;;;15.90;70.93;98845.97;4954445;29;20127;-78
2023/03/30 09:50:27;;;;;;;11.52;7.75;;;;;;;15.68;71.52;98837.19;4954180;29;20470;-77
2023/03/30 09:53:00;;;;;;;7.22;6.40;;;;;;;15.86;71.54;98836.66;4954388;29;20040;-78
2023/03/30 09:55:31;;;;;;;12.25;8.18;;;;;;;16.03;71.11;98843.16;4954864;28;20039;-77
2023/03/30 09:58:19;;;;;;;7.47;6.47;;;;;;;16.24;71.35;98856.31;4973590;28;20442;-77
2023/03/30 10:00:45;;;;;;;9.75;7.13;;;;;;;16.07;70.76;98827.03;4973573;28;20035;-78
2023/03/30 10:03:21;;;;;;;10.77;7.90;;;;;;;16.17;71.24;98817.41;4973625;28;20395;-78
2023/03/30 10:06:04;;;;;;;10.27;6.85;;;;;;;16.22;70.58;98824.91;4973423;28;20027;-77
2023/03/30 10:08:30;;;;;;;11.98;6.78;;;;;;;16.29;70.10;98838.38;5034669;28;20034;-77
2023/03/30 10:10:58;;;;;;;12.25;7.82;;;;;;;16.48;69.79;98850.84;5034907;28;20029;-78
2023/03/30 10:13:31;;;;;;;8.13;6.93;;;;;;;16.62;70.04;98859.22;5034558;28;20035;-77
2023/03/30 10:16:20;;;;;;;8.90;7.38;;;;;;;16.52;70.24;98852.22;5034635;28;20029;-78
2023/03/30 10:18:46;;;;;;;11.48;6.45;;;;;;;16.62;68.13;98847.88;5034536;28;20041;-78
2023/03/30 10:21:18;;;;;;;9.50;7.00;;;;;;;16.55;67.86;98851.97;5034621;28;20381;-78
2023/03/30 10:23:45;;;;;;;9.40;6.50;;;;;;;16.50;67.76;98836.59;5034519;28;20026;-78
2023/03/30 10:26:16;;;;;;;9.35;7.32;;;;;;;16.53;68.33;98836.34;5034443;28;20029;-78
2023/03/30 10:29:03;;;;;;;8.53;6.03;;;;;;;16.55;67.87;98828.31;5034402;28;20405;-78
2023/03/30 10:31:30;;;;;;;10.18;7.05;;;;;;;16.55;67.50;98844.09;5034175;28;20044;-78
2023/03/30 10:34:00;;;;;;;7.40;6.00;;;;;;;16.44;67.59;98839.75;5034223;28;20389;-78
2023/03/30 10:36:30;;;;;;;12.68;6.68;;;;;;;16.43;67.97;98838.06;5034243;28;20475;-78
2023/03/30 10:39:11;;;;;;;11.75;5.70;;;;;;;16.34;67.69;98820.44;5034040;28;20367;-77
2023/03/30 10:41:39;;;;;;;10.40;6.53;;;;;;;16.52;67.49;98837.31;5033850;28;20026;-78
2023/03/30 10:44:33;;;;;;;10.25;6.47;;;;;;;16.71;66.99;98841.84;5034236;28;20627;-78
2023/03/30 10:47:23;;;;;;;7.95;6.63;;;;;;;16.71;66.28;98853.19;5031531;28;20045;-78
2023/03/30 10:50:03;;;;;;;6.53;5.25;;;;;;;16.88;66.00;98845.69;5030680;28;20033;-78
2023/03/30 10:52:50;;;;;;;11.98;5.65;;;;;;;16.99;65.53;98844.78;5031256;28;20080;-78
2023/03/30 10:55:28;;;;;;;10.45;8.52;;;;;;;16.90;65.33;98825.38;5031343;28;20067;-78
2023/03/30 10:58:19;;;;;;;11.27;8.80;;;;;;;16.80;65.86;98827.09;5031287;28;20038;-78
2023/03/30 11:01:15;;;;;;;8.25;6.93;;;;;;;16.61;65.93;98814.66;5031337;28;20060;-78
2023/03/30 11:03:46;;;;;;;8.10;5.93;;;;;;;16.45;66.04;98812.50;5031413;28;20088;-78
2023/03/30 11:06:19;;;;;;;9.80;6.53;;;;;;;16.40;66.24;98836.53;5014571;28;20501;-78
2023/03/30 11:08:50;;;;;;;8.10;6.70;;;;;;;16.12;66.85;98832.72;5031125;28;20520;-78
2023/03/30 11:11:20;;;;;;;8.35;6.53;;;;;;;15.84;67.32;98814.94;5031067;28;20039;-78
2023/03/30 11:13:54;;;;;;;8.07;6.63;;;;;;;15.86;68.07;98836.66;5031031;28;20426;-78
2023/03/30 11:16:26;;;;;;;12.77;7.03;;;;;;;15.91;68.04;98839.75;5030707;28;20049;-78
2023/03/30 11:19:06;;;;;;;11.25;7.13;;;;;;;16.10;67.78;98842.53;5031076;28;20215;-78
2023/03/30 11:21:55;;;;;;;8.32;7.15;;;;;;;16.23;66.98;98850.25;5030817;28;20099;-78
2023/03/30 11:24:22;;;;;;;13.30;8.13;;;;;;;16.40;67.16;98856.72;5032505;28;20800;-78
2023/03/30 11:26:54;;;;;;;13.38;7.75;;;;;;;16.24;66.87;98825.63;5042117;28;20485;-78
2023/03/30 11:29:47;;;;;;;9.93;6.88;;;;;;;16.50;66.99;98849.72;5040175;28;20034;-78
2023/03/30 11:32:42;;;;;;;10.95;7.45;;;;;;;16.70;67.41;98848.06;5033594;28;20036;-78
2023/03/30 11:35:34;;;;;;;9.77;6.82;;;;;;;17.08;66.42;98862.41;5033175;28;20428;-78
2023/03/30 11:38:16;;;;;;;12.55;7.85;;;;;;;17.10;65.53;98842.03;5033302;28;20056;-78
2023/03/30 11:40:54;;;;;;;11.45;7.18;;;;;;;17.09;64.75;98835.94;5035190;28;20381;-78